sensor_id;sensor_type;location;lat;lon;timestamp;temperature;humidity
11142;DHT22;5625;50.122;19.864;2023-02-28T00:01:27;0.50;99.90
11142;DHT22;5625;50.122;19.864;2023-02-28T00:03:57;0.50;99.90
11142;DHT22;5625;50.122;19.864;2023-02-28T00:06:26;0.50;99.90
11142;DHT22;5625;50.122;19.864;2023-02-28T00:08:54;0.50;99.90
11142;DHT22;5625;50.122;19.864;2023-02-28T00:11:22;0.50;99.90
11142;DHT22;5625;50.122;19.864;2023-02-28T00:13:54;0.50;99.90
11142;DHT22;5625;50.122;19.864;2023-02-28T00:16:22;0.50;99.90
11142;DHT22;5625;50.122;19.864;2023-02-28T00:18:51;0.50;99.90
11142;DHT22;5625;50.122;19.864;2023-02-28T00:21:20;0.50;99.90
11142;DHT22;5625;50.122;19.864;2023-02-28T00:23:49;0.50;99.90
11142;DHT22;5625;50.122;19.864;2023-02-28T00:26:17;0.50;99.90
11142;DHT22;5625;50.122;19.864;2023-02-28T00:28:47;0.40;99.90
11142;DHT22;5625;50.122;19.864;2023-02-28T00:31:16;0.40;99.90
11142;DHT22;5625;50.122;19.864;2023-02-28T00:33:44;0.40;99.90
11142;DHT22;5625;50.122;19.864;2023-02-28T00:36:12;0.40;99.90
11142;DHT22;5625;50.122;19.864;2023-02-28T00:38:41;0.40;99.90
11142;DHT22;5625;50.122;19.864;2023-02-28T00:41:09;0.40;99.90
11142;DHT22;5625;50.122;19.864;2023-02-28T00:43:38;0.40;99.90
11142;DHT22;5625;50.122;19.864;2023-02-28T00:46:08;0.40;99.90
11142;DHT22;5625;50.122;19.864;2023-02-28T00:48:36;0.40;99.90
11142;DHT22;5625;50.122;19.864;2023-02-28T00:51:04;0.40;99.90
11142;DHT22;5625;50.122;19.864;2023-02-28T00:53:32;0.40;99.90
11142;DHT22;5625;50.122;19.864;2023-02-28T00:56:02;0.40;99.90
11142;DHT22;5625;50.122;19.864;2023-02-28T00:58:31;0.40;99.90
11142;DHT22;5625;50.122;19.864;2023-02-28T01:00:59;0.40;99.90
11142;DHT22;5625;50.122;19.864;2023-02-28T01:03:27;0.30;99.90
11142;DHT22;5625;50.122;19.864;2023-02-28T01:05:55;0.30;99.90
11142;DHT22;5625;50.122;19.864;2023-02-28T01:08:27;0.30;99.90
11142;DHT22;5625;50.122;19.864;2023-02-28T01:10:56;0.30;99.90
11142;DHT22;5625;50.122;19.864;2023-02-28T01:13:26;0.20;99.90
11142;DHT22;5625;50.122;19.864;2023-02-28T01:15:55;0.20;99.90
11142;DHT22;5625;50.122;19.864;2023-02-28T01:18:24;0.20;99.90
11142;DHT22;5625;50.122;19.864;2023-02-28T01:20:52;0.20;99.90
11142;DHT22;5625;50.122;19.864;2023-02-28T01:23:21;0.20;99.90
11142;DHT22;5625;50.122;19.864;2023-02-28T01:25:51;0.20;99.90
11142;DHT22;5625;50.122;19.864;2023-02-28T01:28:19;0.10;99.90
11142;DHT22;5625;50.122;19.864;2023-02-28T01:30:49;0.10;99.90
11142;DHT22;5625;50.122;19.864;2023-02-28T01:33:18;0.10;99.90
11142;DHT22;5625;50.122;19.864;2023-02-28T01:35:46;0.10;99.90
11142;DHT22;5625;50.122;19.864;2023-02-28T01:38:14;0.10;99.90
11142;DHT22;5625;50.122;19.864;2023-02-28T01:40:49;0.10;99.90
11142;DHT22;5625;50.122;19.864;2023-02-28T01:43:22;0.10;99.90
11142;DHT22;5625;50.122;19.864;2023-02-28T01:45:53;0.10;99.90
11142;DHT22;5625;50.122;19.864;2023-02-28T01:48:26;0.00;99.90
11142;DHT22;5625;50.122;19.864;2023-02-28T01:50:55;0.00;99.90
11142;DHT22;5625;50.122;19.864;2023-02-28T01:53:30;0.00;99.90
11142;DHT22;5625;50.122;19.864;2023-02-28T01:56:00;0.00;99.90
11142;DHT22;5625;50.122;19.864;2023-02-28T01:58:29;0.00;99.90
11142;DHT22;5625;50.122;19.864;2023-02-28T02:00:58;0.00;99.90
11142;DHT22;5625;50.122;19.864;2023-02-28T02:03:26;0.00;99.90
11142;DHT22;5625;50.122;19.864;2023-02-28T02:05:54;0.00;99.90
11142;DHT22;5625;50.122;19.864;2023-02-28T02:08:25;0.00;99.90
11142;DHT22;5625;50.122;19.864;2023-02-28T02:10:55;-0.10;99.90
11142;DHT22;5625;50.122;19.864;2023-02-28T02:13:53;-0.10;99.90
11142;DHT22;5625;50.122;19.864;2023-02-28T02:16:34;-0.10;99.90
11142;DHT22;5625;50.122;19.864;2023-02-28T02:19:16;-0.10;99.90
11142;DHT22;5625;50.122;19.864;2023-02-28T02:25:09;-0.20;99.90
11142;DHT22;5625;50.122;19.864;2023-02-28T02:27:55;-0.20;99.90
11142;DHT22;5625;50.122;19.864;2023-02-28T02:30:45;-0.20;99.90
11142;DHT22;5625;50.122;19.864;2023-02-28T02:33:46;-0.30;99.90
11142;DHT22;5625;50.122;19.864;2023-02-28T02:36:25;-0.30;99.90
11142;DHT22;5625;50.122;19.864;2023-02-28T02:39:02;-0.40;99.90
11142;DHT22;5625;50.122;19.864;2023-02-28T02:41:36;-0.40;99.90
11142;DHT22;5625;50.122;19.864;2023-02-28T02:44:11;-0.40;99.90
11142;DHT22;5625;50.122;19.864;2023-02-28T02:46:43;-0.50;99.90
11142;DHT22;5625;50.122;19.864;2023-02-28T02:49:15;-0.40;99.90
11142;DHT22;5625;50.122;19.864;2023-02-28T02:51:46;-0.40;99.90
11142;DHT22;5625;50.122;19.864;2023-02-28T02:54:18;-0.50;99.90
11142;DHT22;5625;50.122;19.864;2023-02-28T02:56:48;-0.50;99.90
11142;DHT22;5625;50.122;19.864;2023-02-28T02:59:21;-0.60;99.90
11142;DHT22;5625;50.122;19.864;2023-02-28T03:01:53;-0.60;99.90
11142;DHT22;5625;50.122;19.864;2023-02-28T03:04:25;-0.60;99.90
11142;DHT22;5625;50.122;19.864;2023-02-28T03:06:56;-0.70;99.90
11142;DHT22;5625;50.122;19.864;2023-02-28T03:09:25;-0.70;99.90
11142;DHT22;5625;50.122;19.864;2023-02-28T03:11:55;-0.70;99.90
11142;DHT22;5625;50.122;19.864;2023-02-28T03:14:34;-0.70;99.90
11142;DHT22;5625;50.122;19.864;2023-02-28T03:17:38;-0.80;99.90
11142;DHT22;5625;50.122;19.864;2023-02-28T03:20:16;-0.80;99.90
11142;DHT22;5625;50.122;19.864;2023-02-28T03:22:52;-0.80;99.90
11142;DHT22;5625;50.122;19.864;2023-02-28T03:25:32;-0.80;99.90
11142;DHT22;5625;50.122;19.864;2023-02-28T03:28:04;-0.90;99.90
11142;DHT22;5625;50.122;19.864;2023-02-28T03:30:41;-0.90;99.90
11142;DHT22;5625;50.122;19.864;2023-02-28T03:33:12;-0.90;99.90
11142;DHT22;5625;50.122;19.864;2023-02-28T03:35:43;-1.00;99.90
11142;DHT22;5625;50.122;19.864;2023-02-28T03:38:18;-1.00;99.90
11142;DHT22;5625;50.122;19.864;2023-02-28T03:40:50;-1.00;99.90
11142;DHT22;5625;50.122;19.864;2023-02-28T03:43:22;-1.10;99.90
11142;DHT22;5625;50.122;19.864;2023-02-28T03:45:55;-1.10;99.90
11142;DHT22;5625;50.122;19.864;2023-02-28T03:48:28;-1.10;99.90
11142;DHT22;5625;50.122;19.864;2023-02-28T03:50:59;-1.20;99.90
11142;DHT22;5625;50.122;19.864;2023-02-28T03:53:32;-1.20;99.90
11142;DHT22;5625;50.122;19.864;2023-02-28T03:56:06;-1.20;99.90
11142;DHT22;5625;50.122;19.864;2023-02-28T03:58:41;-1.30;99.90
11142;DHT22;5625;50.122;19.864;2023-02-28T04:01:13;-1.30;99.90
11142;DHT22;5625;50.122;19.864;2023-02-28T04:03:44;-1.30;99.90
11142;DHT22;5625;50.122;19.864;2023-02-28T04:06:15;-1.30;99.90
11142;DHT22;5625;50.122;19.864;2023-02-28T04:08:46;-1.30;99.90
11142;DHT22;5625;50.122;19.864;2023-02-28T04:11:20;-1.30;99.90
11142;DHT22;5625;50.122;19.864;2023-02-28T04:13:48;-1.30;99.90
11142;DHT22;5625;50.122;19.864;2023-02-28T04:16:17;-1.30;99.90
11142;DHT22;5625;50.122;19.864;2023-02-28T04:19:01;-1.40;99.90
11142;DHT22;5625;50.122;19.864;2023-02-28T04:21:31;-1.40;99.90
11142;DHT22;5625;50.122;19.864;2023-02-28T04:24:01;-1.40;99.90
11142;DHT22;5625;50.122;19.864;2023-02-28T04:26:31;-1.40;99.90
11142;DHT22;5625;50.122;19.864;2023-02-28T04:29:00;-1.40;99.90
11142;DHT22;5625;50.122;19.864;2023-02-28T04:31:28;-1.40;99.90
11142;DHT22;5625;50.122;19.864;2023-02-28T04:33:57;-1.40;99.90
11142;DHT22;5625;50.122;19.864;2023-02-28T04:36:25;-1.40;99.90
11142;DHT22;5625;50.122;19.864;2023-02-28T04:38:54;-1.50;99.90
11142;DHT22;5625;50.122;19.864;2023-02-28T04:41:26;-1.50;99.90
11142;DHT22;5625;50.122;19.864;2023-02-28T04:43:58;-1.50;99.90
11142;DHT22;5625;50.122;19.864;2023-02-28T04:46:26;-1.50;99.90
11142;DHT22;5625;50.122;19.864;2023-02-28T04:48:54;-1.50;99.90
11142;DHT22;5625;50.122;19.864;2023-02-28T04:51:22;-1.50;99.90
11142;DHT22;5625;50.122;19.864;2023-02-28T04:53:50;-1.60;99.90
11142;DHT22;5625;50.122;19.864;2023-02-28T04:56:19;-1.50;99.90
11142;DHT22;5625;50.122;19.864;2023-02-28T04:58:49;-1.50;99.90
11142;DHT22;5625;50.122;19.864;2023-02-28T05:01:22;-1.50;99.90
11142;DHT22;5625;50.122;19.864;2023-02-28T05:03:51;-1.60;99.90
11142;DHT22;5625;50.122;19.864;2023-02-28T05:06:21;-1.60;99.90
11142;DHT22;5625;50.122;19.864;2023-02-28T05:08:50;-1.60;99.90
11142;DHT22;5625;50.122;19.864;2023-02-28T05:11:20;-1.60;99.90
11142;DHT22;5625;50.122;19.864;2023-02-28T05:13:50;-1.70;99.90
11142;DHT22;5625;50.122;19.864;2023-02-28T05:16:19;-1.70;99.90
11142;DHT22;5625;50.122;19.864;2023-02-28T05:18:47;-1.70;99.90
11142;DHT22;5625;50.122;19.864;2023-02-28T05:21:27;-1.70;99.90
11142;DHT22;5625;50.122;19.864;2023-02-28T05:23:56;-1.70;99.90
11142;DHT22;5625;50.122;19.864;2023-02-28T05:26:26;-1.70;99.90
11142;DHT22;5625;50.122;19.864;2023-02-28T05:28:56;-1.70;99.90
11142;DHT22;5625;50.122;19.864;2023-02-28T05:31:24;-1.70;99.90
11142;DHT22;5625;50.122;19.864;2023-02-28T05:33:52;-1.70;99.90
11142;DHT22;5625;50.122;19.864;2023-02-28T05:36:21;-1.70;99.90
11142;DHT22;5625;50.122;19.864;2023-02-28T05:38:50;-1.70;99.90
11142;DHT22;5625;50.122;19.864;2023-02-28T05:41:20;-1.70;99.90
11142;DHT22;5625;50.122;19.864;2023-02-28T05:43:48;-1.70;99.90
11142;DHT22;5625;50.122;19.864;2023-02-28T05:46:18;-1.70;99.90
11142;DHT22;5625;50.122;19.864;2023-02-28T05:48:47;-1.70;99.90
11142;DHT22;5625;50.122;19.864;2023-02-28T05:51:16;-1.80;99.90
11142;DHT22;5625;50.122;19.864;2023-02-28T05:53:44;-1.70;99.90
11142;DHT22;5625;50.122;19.864;2023-02-28T05:56:12;-1.70;99.90
11142;DHT22;5625;50.122;19.864;2023-02-28T05:58:40;-1.70;99.90
11142;DHT22;5625;50.122;19.864;2023-02-28T06:01:30;-1.70;99.90
11142;DHT22;5625;50.122;19.864;2023-02-28T06:03:59;-1.70;99.90
11142;DHT22;5625;50.122;19.864;2023-02-28T06:06:27;-1.70;99.90
11142;DHT22;5625;50.122;19.864;2023-02-28T06:08:56;-1.70;99.90
11142;DHT22;5625;50.122;19.864;2023-02-28T06:11:24;-1.70;99.90
11142;DHT22;5625;50.122;19.864;2023-02-28T06:13:56;-1.70;99.90
11142;DHT22;5625;50.122;19.864;2023-02-28T06:16:28;-1.70;99.90
11142;DHT22;5625;50.122;19.864;2023-02-28T06:18:57;-1.70;99.90
11142;DHT22;5625;50.122;19.864;2023-02-28T06:21:26;-1.70;99.90
11142;DHT22;5625;50.122;19.864;2023-02-28T06:23:56;-1.70;99.90
11142;DHT22;5625;50.122;19.864;2023-02-28T06:26:25;-1.60;99.90
11142;DHT22;5625;50.122;19.864;2023-02-28T06:28:53;-1.60;99.90
11142;DHT22;5625;50.122;19.864;2023-02-28T06:31:22;-1.60;99.90
11142;DHT22;5625;50.122;19.864;2023-02-28T06:33:55;-1.50;99.90
11142;DHT22;5625;50.122;19.864;2023-02-28T06:36:23;-1.50;99.90
11142;DHT22;5625;50.122;19.864;2023-02-28T06:38:51;-1.50;99.90
11142;DHT22;5625;50.122;19.864;2023-02-28T06:41:23;-1.50;99.90
11142;DHT22;5625;50.122;19.864;2023-02-28T06:43:52;-1.50;99.90
11142;DHT22;5625;50.122;19.864;2023-02-28T06:46:20;-1.40;99.90
11142;DHT22;5625;50.122;19.864;2023-02-28T06:48:48;-1.40;99.90
11142;DHT22;5625;50.122;19.864;2023-02-28T06:51:19;-1.40;99.90
11142;DHT22;5625;50.122;19.864;2023-02-28T06:53:49;-1.30;99.90
11142;DHT22;5625;50.122;19.864;2023-02-28T06:56:18;-1.30;99.90
11142;DHT22;5625;50.122;19.864;2023-02-28T06:58:47;-1.30;99.90
11142;DHT22;5625;50.122;19.864;2023-02-28T07:01:17;-1.20;99.90
11142;DHT22;5625;50.122;19.864;2023-02-28T07:03:46;-1.20;99.90
11142;DHT22;5625;50.122;19.864;2023-02-28T07:06:20;-1.20;99.90
11142;DHT22;5625;50.122;19.864;2023-02-28T07:08:49;-1.20;99.90
11142;DHT22;5625;50.122;19.864;2023-02-28T07:11:19;-1.20;99.90
11142;DHT22;5625;50.122;19.864;2023-02-28T07:13:48;-1.10;99.90
11142;DHT22;5625;50.122;19.864;2023-02-28T07:16:16;-1.00;99.90
11142;DHT22;5625;50.122;19.864;2023-02-28T07:18:44;-0.90;99.90
11142;DHT22;5625;50.122;19.864;2023-02-28T07:21:12;-0.80;99.90
11142;DHT22;5625;50.122;19.864;2023-02-28T07:23:41;-0.70;99.90
11142;DHT22;5625;50.122;19.864;2023-02-28T07:26:12;-0.70;99.90
11142;DHT22;5625;50.122;19.864;2023-02-28T07:28:42;-0.60;99.90
11142;DHT22;5625;50.122;19.864;2023-02-28T07:31:13;-0.60;99.90
11142;DHT22;5625;50.122;19.864;2023-02-28T07:33:42;-0.60;99.90
11142;DHT22;5625;50.122;19.864;2023-02-28T07:36:11;-0.60;99.90
11142;DHT22;5625;50.122;19.864;2023-02-28T07:38:44;-0.60;99.90
11142;DHT22;5625;50.122;19.864;2023-02-28T07:41:14;-0.50;99.90
11142;DHT22;5625;50.122;19.864;2023-02-28T07:43:45;-0.50;99.90
11142;DHT22;5625;50.122;19.864;2023-02-28T07:46:15;-0.50;99.90
11142;DHT22;5625;50.122;19.864;2023-02-28T07:48:44;-0.40;99.90
11142;DHT22;5625;50.122;19.864;2023-02-28T07:51:12;-0.40;99.90
11142;DHT22;5625;50.122;19.864;2023-02-28T07:53:40;-0.40;99.90
11142;DHT22;5625;50.122;19.864;2023-02-28T07:56:09;-0.40;99.90
11142;DHT22;5625;50.122;19.864;2023-02-28T07:58:38;-0.30;99.90
11142;DHT22;5625;50.122;19.864;2023-02-28T08:01:06;-0.30;99.90
11142;DHT22;5625;50.122;19.864;2023-02-28T08:03:35;-0.20;99.90
11142;DHT22;5625;50.122;19.864;2023-02-28T08:06:09;-0.20;99.90
11142;DHT22;5625;50.122;19.864;2023-02-28T08:08:42;-0.10;99.90
11142;DHT22;5625;50.122;19.864;2023-02-28T08:11:12;-0.10;99.90
11142;DHT22;5625;50.122;19.864;2023-02-28T08:13:40;0.20;99.90
11142;DHT22;5625;50.122;19.864;2023-02-28T08:16:11;0.30;99.90
11142;DHT22;5625;50.122;19.864;2023-02-28T08:18:41;0.40;99.90
11142;DHT22;5625;50.122;19.864;2023-02-28T08:21:10;0.40;99.90
11142;DHT22;5625;50.122;19.864;2023-02-28T08:23:38;0.40;99.90
11142;DHT22;5625;50.122;19.864;2023-02-28T08:26:06;0.40;99.90
11142;DHT22;5625;50.122;19.864;2023-02-28T08:28:36;0.50;99.90
11142;DHT22;5625;50.122;19.864;2023-02-28T08:31:08;0.70;99.90
11142;DHT22;5625;50.122;19.864;2023-02-28T08:33:36;0.80;99.90
11142;DHT22;5625;50.122;19.864;2023-02-28T08:36:06;1.00;99.90
11142;DHT22;5625;50.122;19.864;2023-02-28T08:38:35;1.00;99.90
11142;DHT22;5625;50.122;19.864;2023-02-28T08:41:07;0.90;99.90
11142;DHT22;5625;50.122;19.864;2023-02-28T08:43:37;0.90;99.90
11142;DHT22;5625;50.122;19.864;2023-02-28T08:46:06;0.90;99.90
11142;DHT22;5625;50.122;19.864;2023-02-28T08:48:35;0.90;99.90
11142;DHT22;5625;50.122;19.864;2023-02-28T08:51:06;0.90;99.90
11142;DHT22;5625;50.122;19.864;2023-02-28T08:53:35;1.00;99.90
11142;DHT22;5625;50.122;19.864;2023-02-28T08:56:06;1.20;99.90
11142;DHT22;5625;50.122;19.864;2023-02-28T08:58:36;1.30;99.90
11142;DHT22;5625;50.122;19.864;2023-02-28T09:01:09;1.50;99.90
11142;DHT22;5625;50.122;19.864;2023-02-28T09:03:37;2.00;99.90
11142;DHT22;5625;50.122;19.864;2023-02-28T09:06:06;2.10;99.90
11142;DHT22;5625;50.122;19.864;2023-02-28T09:08:34;2.10;99.90
11142;DHT22;5625;50.122;19.864;2023-02-28T09:11:03;2.10;99.90
11142;DHT22;5625;50.122;19.864;2023-02-28T09:13:32;2.20;99.90
11142;DHT22;5625;50.122;19.864;2023-02-28T09:16:04;2.70;99.90
11142;DHT22;5625;50.122;19.864;2023-02-28T09:18:33;3.40;99.90
11142;DHT22;5625;50.122;19.864;2023-02-28T09:21:06;4.00;99.90
11142;DHT22;5625;50.122;19.864;2023-02-28T09:23:35;4.60;99.90
11142;DHT22;5625;50.122;19.864;2023-02-28T09:26:05;5.30;98.90
11142;DHT22;5625;50.122;19.864;2023-02-28T09:28:33;6.00;99.00
11142;DHT22;5625;50.122;19.864;2023-02-28T09:31:03;6.60;99.90
11142;DHT22;5625;50.122;19.864;2023-02-28T09:33:32;7.10;1.00
11142;DHT22;5625;50.122;19.864;2023-02-28T09:36:02;7.60;99.90
11142;DHT22;5625;50.122;19.864;2023-02-28T09:38:30;7.70;1.00
11142;DHT22;5625;50.122;19.864;2023-02-28T09:41:00;8.00;1.00
11142;DHT22;5625;50.122;19.864;2023-02-28T09:43:37;8.20;99.90
11142;DHT22;5625;50.122;19.864;2023-02-28T09:46:14;8.70;99.90
11142;DHT22;5625;50.122;19.864;2023-02-28T09:48:47;8.60;99.90
11142;DHT22;5625;50.122;19.864;2023-02-28T09:51:30;8.50;99.90
11142;DHT22;5625;50.122;19.864;2023-02-28T09:54:01;8.60;99.90
11142;DHT22;5625;50.122;19.864;2023-02-28T09:56:33;8.40;99.90
11142;DHT22;5625;50.122;19.864;2023-02-28T09:59:10;8.90;99.90
11142;DHT22;5625;50.122;19.864;2023-02-28T10:01:48;9.10;99.90
11142;DHT22;5625;50.122;19.864;2023-02-28T10:04:35;9.30;85.30
11142;DHT22;5625;50.122;19.864;2023-02-28T10:07:10;9.40;1.00
11142;DHT22;5625;50.122;19.864;2023-02-28T10:09:45;9.40;1.00
11142;DHT22;5625;50.122;19.864;2023-02-28T10:12:16;9.80;1.00
11142;DHT22;5625;50.122;19.864;2023-02-28T10:14:46;9.60;1.00
11142;DHT22;5625;50.122;19.864;2023-02-28T10:17:19;9.30;1.00
11142;DHT22;5625;50.122;19.864;2023-02-28T10:19:56;9.70;1.00
11142;DHT22;5625;50.122;19.864;2023-02-28T10:22:31;10.10;1.00
11142;DHT22;5625;50.122;19.864;2023-02-28T10:25:16;10.00;1.00
11142;DHT22;5625;50.122;19.864;2023-02-28T10:27:48;10.40;1.00
11142;DHT22;5625;50.122;19.864;2023-02-28T10:30:17;10.50;99.90
11142;DHT22;5625;50.122;19.864;2023-02-28T10:32:50;10.50;99.90
11142;DHT22;5625;50.122;19.864;2023-02-28T10:35:21;10.60;99.90
11142;DHT22;5625;50.122;19.864;2023-02-28T10:37:53;10.70;99.90
11142;DHT22;5625;50.122;19.864;2023-02-28T10:40:31;10.30;99.90
11142;DHT22;5625;50.122;19.864;2023-02-28T10:43:02;10.20;99.90
11142;DHT22;5625;50.122;19.864;2023-02-28T10:45:31;9.70;99.90
11142;DHT22;5625;50.122;19.864;2023-02-28T10:48:04;9.20;99.90
11142;DHT22;5625;50.122;19.864;2023-02-28T10:50:37;8.80;99.90
11142;DHT22;5625;50.122;19.864;2023-02-28T10:53:27;8.50;99.90
11142;DHT22;5625;50.122;19.864;2023-02-28T10:55:57;8.20;99.90
11142;DHT22;5625;50.122;19.864;2023-02-28T10:58:29;7.90;1.00
11142;DHT22;5625;50.122;19.864;2023-02-28T11:00:59;7.70;1.00
11142;DHT22;5625;50.122;19.864;2023-02-28T11:03:34;7.60;1.00
11142;DHT22;5625;50.122;19.864;2023-02-28T11:06:07;7.40;1.00
11142;DHT22;5625;50.122;19.864;2023-02-28T11:08:48;7.30;36.80
11142;DHT22;5625;50.122;19.864;2023-02-28T11:11:18;7.10;30.80
11142;DHT22;5625;50.122;19.864;2023-02-28T11:13:50;7.00;70.00
11142;DHT22;5625;50.122;19.864;2023-02-28T11:16:19;6.80;99.90
11142;DHT22;5625;50.122;19.864;2023-02-28T11:18:50;6.70;99.90
11142;DHT22;5625;50.122;19.864;2023-02-28T11:21:23;6.70;99.90
11142;DHT22;5625;50.122;19.864;2023-02-28T11:23:56;6.50;99.90
11142;DHT22;5625;50.122;19.864;2023-02-28T11:26:37;6.40;99.90
11142;DHT22;5625;50.122;19.864;2023-02-28T11:29:18;6.30;99.90
11142;DHT22;5625;50.122;19.864;2023-02-28T11:32:06;6.10;99.90
11142;DHT22;5625;50.122;19.864;2023-02-28T11:34:40;5.80;1.00
11142;DHT22;5625;50.122;19.864;2023-02-28T11:37:12;5.60;1.00
11142;DHT22;5625;50.122;19.864;2023-02-28T11:39:41;5.60;99.90
11142;DHT22;5625;50.122;19.864;2023-02-28T11:42:32;5.60;99.90
11142;DHT22;5625;50.122;19.864;2023-02-28T11:45:19;5.60;99.90
11142;DHT22;5625;50.122;19.864;2023-02-28T11:47:58;5.50;1.00
11142;DHT22;5625;50.122;19.864;2023-02-28T11:50:52;5.40;99.90
11142;DHT22;5625;50.122;19.864;2023-02-28T11:53:37;5.20;1.00
11142;DHT22;5625;50.122;19.864;2023-02-28T11:56:11;5.30;99.90
11142;DHT22;5625;50.122;19.864;2023-02-28T11:58:49;5.20;99.90
11142;DHT22;5625;50.122;19.864;2023-02-28T12:01:27;5.10;99.90
11142;DHT22;5625;50.122;19.864;2023-02-28T12:04:14;5.10;99.90
11142;DHT22;5625;50.122;19.864;2023-02-28T12:06:50;4.90;99.90
11142;DHT22;5625;50.122;19.864;2023-02-28T12:09:33;4.80;1.00
11142;DHT22;5625;50.122;19.864;2023-02-28T12:12:10;4.80;8.40
11142;DHT22;5625;50.122;19.864;2023-02-28T12:14:53;4.70;99.90
11142;DHT22;5625;50.122;19.864;2023-02-28T12:17:43;4.80;65.60
11142;DHT22;5625;50.122;19.864;2023-02-28T12:20:21;4.80;95.60
11142;DHT22;5625;50.122;19.864;2023-02-28T12:23:04;4.90;95.70
11142;DHT22;5625;50.122;19.864;2023-02-28T12:25:47;4.70;1.00
11142;DHT22;5625;50.122;19.864;2023-02-28T12:28:21;4.60;1.00
11142;DHT22;5625;50.122;19.864;2023-02-28T12:30:56;4.50;99.90
11142;DHT22;5625;50.122;19.864;2023-02-28T12:33:31;4.60;99.90
11142;DHT22;5625;50.122;19.864;2023-02-28T12:36:05;4.50;1.00
11142;DHT22;5625;50.122;19.864;2023-02-28T12:38:40;4.60;55.90
11142;DHT22;5625;50.122;19.864;2023-02-28T12:41:13;4.50;99.90
11142;DHT22;5625;50.122;19.864;2023-02-28T12:43:46;4.70;1.00
11142;DHT22;5625;50.122;19.864;2023-02-28T12:46:19;4.70;99.90
11142;DHT22;5625;50.122;19.864;2023-02-28T12:48:52;4.70;1.00
11142;DHT22;5625;50.122;19.864;2023-02-28T12:51:22;4.80;1.00
11142;DHT22;5625;50.122;19.864;2023-02-28T12:53:59;4.80;1.00
11142;DHT22;5625;50.122;19.864;2023-02-28T12:56:35;4.90;1.00
11142;DHT22;5625;50.122;19.864;2023-02-28T12:59:14;4.90;99.90
11142;DHT22;5625;50.122;19.864;2023-02-28T13:02:00;4.90;1.00
11142;DHT22;5625;50.122;19.864;2023-02-28T13:04:42;4.90;26.30
11142;DHT22;5625;50.122;19.864;2023-02-28T13:07:42;4.70;1.00
11142;DHT22;5625;50.122;19.864;2023-02-28T13:10:18;4.70;1.00
11142;DHT22;5625;50.122;19.864;2023-02-28T13:12:51;4.50;1.00
11142;DHT22;5625;50.122;19.864;2023-02-28T13:15:22;4.60;99.90
11142;DHT22;5625;50.122;19.864;2023-02-28T13:17:54;4.70;1.00
11142;DHT22;5625;50.122;19.864;2023-02-28T13:20:25;4.70;1.00
11142;DHT22;5625;50.122;19.864;2023-02-28T13:22:54;4.70;99.90
11142;DHT22;5625;50.122;19.864;2023-02-28T13:25:52;4.60;99.90
11142;DHT22;5625;50.122;19.864;2023-02-28T13:31:28;4.50;99.90
11142;DHT22;5625;50.122;19.864;2023-02-28T13:34:11;4.30;99.90
11142;DHT22;5625;50.122;19.864;2023-02-28T13:36:40;4.30;99.90
11142;DHT22;5625;50.122;19.864;2023-02-28T13:39:48;4.20;79.60
11142;DHT22;5625;50.122;19.864;2023-02-28T13:42:33;4.10;13.00
11142;DHT22;5625;50.122;19.864;2023-02-28T13:45:27;4.00;99.90
11142;DHT22;5625;50.122;19.864;2023-02-28T13:47:59;4.10;99.90
11142;DHT22;5625;50.122;19.864;2023-02-28T13:50:33;4.00;99.90
11142;DHT22;5625;50.122;19.864;2023-02-28T13:53:32;4.00;99.90
11142;DHT22;5625;50.122;19.864;2023-02-28T13:56:08;3.90;99.90
11142;DHT22;5625;50.122;19.864;2023-02-28T13:58:53;3.90;99.90
11142;DHT22;5625;50.122;19.864;2023-02-28T14:01:36;4.00;1.00
11142;DHT22;5625;50.122;19.864;2023-02-28T14:04:38;3.90;99.90
11142;DHT22;5625;50.122;19.864;2023-02-28T14:07:18;3.90;1.00
11142;DHT22;5625;50.122;19.864;2023-02-28T14:09:53;3.80;1.00
11142;DHT22;5625;50.122;19.864;2023-02-28T14:12:53;3.80;1.00
11142;DHT22;5625;50.122;19.864;2023-02-28T14:15:57;3.90;1.00
11142;DHT22;5625;50.122;19.864;2023-02-28T14:18:31;3.90;1.00
11142;DHT22;5625;50.122;19.864;2023-02-28T14:24:19;3.80;34.50
11142;DHT22;5625;50.122;19.864;2023-02-28T14:27:11;3.70;1.00
11142;DHT22;5625;50.122;19.864;2023-02-28T14:32:54;3.70;84.00
11142;DHT22;5625;50.122;19.864;2023-02-28T14:35:47;3.70;52.70
11142;DHT22;5625;50.122;19.864;2023-02-28T14:38:21;3.70;1.00
11142;DHT22;5625;50.122;19.864;2023-02-28T14:40:56;3.80;1.00
11142;DHT22;5625;50.122;19.864;2023-02-28T14:43:27;3.80;1.00
11142;DHT22;5625;50.122;19.864;2023-02-28T14:45:58;3.80;1.00
11142;DHT22;5625;50.122;19.864;2023-02-28T14:48:28;3.80;38.90
11142;DHT22;5625;50.122;19.864;2023-02-28T14:50:58;3.90;1.00
11142;DHT22;5625;50.122;19.864;2023-02-28T14:53:29;4.00;1.00
11142;DHT22;5625;50.122;19.864;2023-02-28T14:55:58;4.00;1.00
11142;DHT22;5625;50.122;19.864;2023-02-28T14:58:29;3.90;1.00
11142;DHT22;5625;50.122;19.864;2023-02-28T15:00:59;4.00;1.00
11142;DHT22;5625;50.122;19.864;2023-02-28T15:03:33;4.00;1.00
11142;DHT22;5625;50.122;19.864;2023-02-28T15:06:02;4.00;1.00
11142;DHT22;5625;50.122;19.864;2023-02-28T15:08:31;4.00;1.00
11142;DHT22;5625;50.122;19.864;2023-02-28T15:11:06;3.90;1.00
11142;DHT22;5625;50.122;19.864;2023-02-28T15:13:38;3.90;1.00
11142;DHT22;5625;50.122;19.864;2023-02-28T15:16:10;3.90;7.00
11142;DHT22;5625;50.122;19.864;2023-02-28T15:18:46;3.90;1.00
11142;DHT22;5625;50.122;19.864;2023-02-28T15:21:16;3.80;1.00
11142;DHT22;5625;50.122;19.864;2023-02-28T15:23:48;3.80;5.70
11142;DHT22;5625;50.122;19.864;2023-02-28T15:26:20;3.70;1.00
11142;DHT22;5625;50.122;19.864;2023-02-28T15:28:59;3.70;1.00
11142;DHT22;5625;50.122;19.864;2023-02-28T15:31:29;3.70;67.90
11142;DHT22;5625;50.122;19.864;2023-02-28T15:34:18;3.70;99.90
11142;DHT22;5625;50.122;19.864;2023-02-28T15:36:50;3.60;99.90
11142;DHT22;5625;50.122;19.864;2023-02-28T15:39:23;3.60;99.90
11142;DHT22;5625;50.122;19.864;2023-02-28T15:42:09;3.60;99.90
11142;DHT22;5625;50.122;19.864;2023-02-28T15:44:38;3.50;99.90
11142;DHT22;5625;50.122;19.864;2023-02-28T15:47:11;3.50;99.90
11142;DHT22;5625;50.122;19.864;2023-02-28T15:49:49;3.50;99.90
11142;DHT22;5625;50.122;19.864;2023-02-28T15:52:20;3.40;99.90
11142;DHT22;5625;50.122;19.864;2023-02-28T15:54:49;3.40;99.90
11142;DHT22;5625;50.122;19.864;2023-02-28T15:57:20;3.30;99.90
11142;DHT22;5625;50.122;19.864;2023-02-28T15:59:52;3.30;99.90
11142;DHT22;5625;50.122;19.864;2023-02-28T16:02:22;3.30;99.90
11142;DHT22;5625;50.122;19.864;2023-02-28T16:05:19;3.20;99.90
11142;DHT22;5625;50.122;19.864;2023-02-28T16:07:54;3.20;99.90
11142;DHT22;5625;50.122;19.864;2023-02-28T16:10:24;3.10;99.90
11142;DHT22;5625;50.122;19.864;2023-02-28T16:12:53;3.10;99.90
11142;DHT22;5625;50.122;19.864;2023-02-28T16:15:25;3.00;99.90
11142;DHT22;5625;50.122;19.864;2023-02-28T16:17:54;3.00;99.90
11142;DHT22;5625;50.122;19.864;2023-02-28T16:20:27;3.00;99.90
11142;DHT22;5625;50.122;19.864;2023-02-28T16:22:55;3.00;99.90
11142;DHT22;5625;50.122;19.864;2023-02-28T16:25:33;2.90;99.90
11142;DHT22;5625;50.122;19.864;2023-02-28T16:28:02;2.90;99.90
11142;DHT22;5625;50.122;19.864;2023-02-28T16:30:30;2.90;99.90
11142;DHT22;5625;50.122;19.864;2023-02-28T16:32:59;2.80;1.00